RYR6048 EFHK-LDDU
Flight info
| Callsign | RYR6048 |
|---|---|
| Flight time | 2h 30m |
| Altitude | 36000 |
| Route | KOIVU Y123 LARTI DCT NAVOT DCT NEVTO P870 BERIL/N0444F370 DCT NAPOT/N0440F360 DCT SUWGI DCT LOGDA DCT BABKO/N0435F380 DCT SLC DCT BAREB/N0434F370 DCT SIVLA/N0434F380 DCT BARIT/N0345F200 P10 NETKO |
| Aircraft | B738/M-SDE3FGILRWY/SB1 |
Departure
| Time | 2026-04-25 10:02 |
|---|---|
| Airport | Helsinki Vantaa Airport (EFHK) |
Arrival
| Time | 2026-04-25 12:32 |
|---|---|
| Airport | Dubrovnik Ruđer Bošković Airport (LDDU) |
| Time | Latitude | Longitude | Altitude | Speed | Heading |
|---|---|---|---|---|---|
| 2026-04-25 09:53 | 60.31374 | 24.97528 | 162 ft | 0 kts | 243° |
| 2026-04-25 09:56 | 60.31379 | 24.97546 | 161 ft | 4 kts | 242° |
| 2026-04-25 09:56 | 60.31391 | 24.97591 | 160 ft | 3 kts | 244° |
| 2026-04-25 09:56 | 60.31396 | 24.97637 | 158 ft | 4 kts | 290° |
| 2026-04-25 09:56 | 60.31380 | 24.97670 | 158 ft | 4 kts | 341° |
| 2026-04-25 09:57 | 60.31354 | 24.97681 | 158 ft | 4 kts | 356° |
| 2026-04-25 09:57 | 60.31329 | 24.97680 | 159 ft | 2 kts | 7° |
| 2026-04-25 09:57 | 60.31328 | 24.97680 | 159 ft | 1 kts | 7° |
| 2026-04-25 09:58 | 60.31329 | 24.97680 | 159 ft | 1 kts | 7° |
| 2026-04-25 09:58 | 60.31369 | 24.97707 | 157 ft | 13 kts | 38° |
| 2026-04-25 09:58 | 60.31458 | 24.97723 | 155 ft | 16 kts | 332° |
| 2026-04-25 09:59 | 60.31582 | 24.97594 | 155 ft | 24 kts | 333° |
| 2026-04-25 09:59 | 60.31742 | 24.97429 | 159 ft | 28 kts | 333° |
| 2026-04-25 09:59 | 60.31919 | 24.97248 | 162 ft | 28 kts | 333° |
| 2026-04-25 09:59 | 60.32087 | 24.97074 | 165 ft | 26 kts | 333° |
| 2026-04-25 10:00 | 60.32244 | 24.96911 | 164 ft | 25 kts | 332° |
| 2026-04-25 10:00 | 60.32386 | 24.96968 | 163 ft | 25 kts | 47° |
| 2026-04-25 10:00 | 60.32530 | 24.97278 | 161 ft | 33 kts | 48° |
| 2026-04-25 10:00 | 60.32647 | 24.97540 | 158 ft | 24 kts | 47° |
| 2026-04-25 10:01 | 60.32759 | 24.97785 | 155 ft | 24 kts | 47° |
| 2026-04-25 10:01 | 60.32887 | 24.97955 | 156 ft | 23 kts | 352° |
| 2026-04-25 10:01 | 60.32991 | 24.97795 | 161 ft | 10 kts | 296° |
| 2026-04-25 10:01 | 60.32961 | 24.97671 | 162 ft | 13 kts | 227° |
| 2026-04-25 10:02 | 60.32758 | 24.97224 | 167 ft | 78 kts | 227° |
| 2026-04-25 10:02 | 60.32243 | 24.96096 | 177 ft | 139 kts | 227° |
| 2026-04-25 10:02 | 60.31528 | 24.94474 | 533 ft | 162 kts | 230° |
| 2026-04-25 10:02 | 60.30755 | 24.92761 | 1405 ft | 166 kts | 229° |
| 2026-04-25 10:03 | 60.29874 | 24.91239 | 2288 ft | 170 kts | 217° |
| 2026-04-25 10:03 | 60.28838 | 24.90066 | 3127 ft | 174 kts | 206° |
| 2026-04-25 10:03 | 60.27661 | 24.89332 | 3761 ft | 186 kts | 200° |
| 2026-04-25 10:03 | 60.26322 | 24.88624 | 4042 ft | 209 kts | 199° |
| 2026-04-25 10:04 | 60.24866 | 24.87872 | 4378 ft | 225 kts | 199° |
| 2026-04-25 10:04 | 60.23306 | 24.87063 | 4823 ft | 236 kts | 199° |
| 2026-04-25 10:04 | 60.21658 | 24.86201 | 5211 ft | 255 kts | 199° |
| 2026-04-25 10:04 | 60.19917 | 24.85287 | 5925 ft | 261 kts | 199° |
| 2026-04-25 10:05 | 60.18150 | 24.84358 | 6702 ft | 263 kts | 199° |
| 2026-04-25 10:05 | 60.16373 | 24.83421 | 7523 ft | 265 kts | 200° |
| 2026-04-25 10:05 | 60.14578 | 24.82469 | 8300 ft | 268 kts | 200° |
| 2026-04-25 10:05 | 60.12768 | 24.81505 | 9076 ft | 271 kts | 200° |
| 2026-04-25 10:06 | 60.10929 | 24.80525 | 9752 ft | 277 kts | 200° |
| 2026-04-25 10:06 | 60.08997 | 24.79485 | 9971 ft | 299 kts | 200° |
| 2026-04-25 10:06 | 60.06909 | 24.78360 | 10152 ft | 321 kts | 199° |
| 2026-04-25 10:06 | 60.04683 | 24.77168 | 10324 ft | 342 kts | 199° |
| 2026-04-25 10:07 | 60.02320 | 24.75908 | 10534 ft | 360 kts | 199° |
| 2026-04-25 10:07 | 59.99866 | 24.74609 | 11033 ft | 367 kts | 199° |
| 2026-04-25 10:07 | 59.97421 | 24.73320 | 11700 ft | 370 kts | 199° |
| 2026-04-25 10:07 | 59.94927 | 24.72005 | 12425 ft | 371 kts | 199° |
| 2026-04-25 10:08 | 59.92421 | 24.70682 | 13064 ft | 375 kts | 199° |
| 2026-04-25 10:08 | 59.89885 | 24.69340 | 13641 ft | 379 kts | 199° |
| 2026-04-25 10:08 | 59.87326 | 24.67989 | 14190 ft | 382 kts | 199° |
| 2026-04-25 10:08 | 59.84742 | 24.66626 | 14756 ft | 385 kts | 199° |
| 2026-04-25 10:09 | 59.82134 | 24.65327 | 15330 ft | 388 kts | 198° |
| 2026-04-25 10:09 | 59.79495 | 24.64101 | 15905 ft | 391 kts | 198° |
| 2026-04-25 10:09 | 59.76829 | 24.62884 | 16396 ft | 395 kts | 198° |
| 2026-04-25 10:09 | 59.74134 | 24.61651 | 16932 ft | 398 kts | 198° |
| 2026-04-25 10:10 | 59.71426 | 24.60400 | 17498 ft | 401 kts | 198° |
| 2026-04-25 10:10 | 59.68706 | 24.59139 | 17995 ft | 403 kts | 198° |
| 2026-04-25 10:10 | 59.65964 | 24.57852 | 18391 ft | 407 kts | 199° |
| 2026-04-25 10:10 | 59.63210 | 24.56454 | 18813 ft | 410 kts | 199° |
| 2026-04-25 10:11 | 59.60448 | 24.54997 | 19278 ft | 412 kts | 200° |
| 2026-04-25 10:11 | 59.57668 | 24.53520 | 19707 ft | 415 kts | 200° |
| 2026-04-25 10:11 | 59.54864 | 24.52037 | 20067 ft | 420 kts | 200° |
| 2026-04-25 10:11 | 59.52026 | 24.50550 | 20458 ft | 423 kts | 200° |
| 2026-04-25 10:12 | 59.49174 | 24.49067 | 20882 ft | 425 kts | 200° |
| 2026-04-25 10:12 | 59.46303 | 24.47581 | 21287 ft | 428 kts | 200° |
| 2026-04-25 10:12 | 59.40492 | 24.44582 | 21987 ft | 435 kts | 200° |
| 2026-04-25 10:13 | 59.37558 | 24.43072 | 22387 ft | 437 kts | 200° |
| 2026-04-25 10:13 | 59.34606 | 24.41561 | 22753 ft | 440 kts | 199° |
| 2026-04-25 10:13 | 59.31595 | 24.40266 | 23053 ft | 446 kts | 197° |
| 2026-04-25 10:13 | 59.28539 | 24.39136 | 23331 ft | 449 kts | 195° |
| 2026-04-25 10:14 | 59.25493 | 24.38078 | 23634 ft | 451 kts | 195° |
| 2026-04-25 10:14 | 59.22391 | 24.37018 | 23900 ft | 454 kts | 195° |
| 2026-04-25 10:14 | 59.19272 | 24.35945 | 24136 ft | 457 kts | 195° |
| 2026-04-25 10:14 | 59.16091 | 24.34838 | 24396 ft | 460 kts | 195° |
| 2026-04-25 10:15 | 59.12979 | 24.33745 | 24687 ft | 461 kts | 195° |
| 2026-04-25 10:15 | 59.09816 | 24.32627 | 24947 ft | 463 kts | 195° |
| 2026-04-25 10:15 | 59.06635 | 24.31498 | 25168 ft | 466 kts | 195° |
| 2026-04-25 10:15 | 59.03434 | 24.30361 | 25407 ft | 469 kts | 195° |
| 2026-04-25 10:16 | 59.00221 | 24.29222 | 25719 ft | 469 kts | 195° |
| 2026-04-25 10:16 | 58.97016 | 24.28090 | 26105 ft | 468 kts | 195° |
| 2026-04-25 10:16 | 58.93812 | 24.26961 | 26461 ft | 468 kts | 195° |
| 2026-04-25 10:16 | 58.90612 | 24.25835 | 26800 ft | 468 kts | 195° |
| 2026-04-25 10:17 | 58.87405 | 24.24708 | 27152 ft | 468 kts | 195° |
| 2026-04-25 10:17 | 58.84203 | 24.23585 | 27506 ft | 467 kts | 195° |
| 2026-04-25 10:17 | 58.81003 | 24.22464 | 27839 ft | 468 kts | 195° |
| 2026-04-25 10:17 | 58.77795 | 24.21342 | 28180 ft | 468 kts | 195° |
| 2026-04-25 10:18 | 58.75671 | 24.20601 | 28421 ft | 468 kts | 195° |
| 2026-04-25 10:18 | 58.71397 | 24.19113 | 28934 ft | 467 kts | 195° |
| 2026-04-25 10:18 | 58.69241 | 24.18363 | 29138 ft | 467 kts | 195° |
| 2026-04-25 10:18 | 58.66034 | 24.17250 | 29423 ft | 468 kts | 196° |
| 2026-04-25 10:19 | 58.62878 | 24.16155 | 29733 ft | 468 kts | 196° |
| 2026-04-25 10:19 | 58.59675 | 24.15048 | 30041 ft | 467 kts | 196° |
| 2026-04-25 10:19 | 58.56479 | 24.13945 | 30294 ft | 467 kts | 196° |
| 2026-04-25 10:19 | 58.53282 | 24.12843 | 30491 ft | 468 kts | 196° |
| 2026-04-25 10:20 | 58.50076 | 24.11739 | 30733 ft | 468 kts | 196° |
| 2026-04-25 10:20 | 58.46868 | 24.10639 | 31018 ft | 468 kts | 196° |
| 2026-04-25 10:20 | 58.43669 | 24.09543 | 31257 ft | 468 kts | 196° |
| 2026-04-25 10:20 | 58.40457 | 24.08444 | 31456 ft | 469 kts | 196° |
| 2026-04-25 10:21 | 58.37246 | 24.07347 | 31685 ft | 469 kts | 196° |
| 2026-04-25 10:21 | 58.34039 | 24.06255 | 31954 ft | 468 kts | 196° |
| 2026-04-25 10:21 | 58.30827 | 24.05163 | 32197 ft | 468 kts | 196° |
| 2026-04-25 10:21 | 58.27618 | 24.04073 | 32403 ft | 469 kts | 196° |
| 2026-04-25 10:22 | 58.24404 | 24.02984 | 32642 ft | 469 kts | 196° |
| 2026-04-25 10:22 | 58.21187 | 24.01896 | 32914 ft | 469 kts | 196° |
| 2026-04-25 10:22 | 58.17983 | 24.00815 | 33147 ft | 468 kts | 196° |
| 2026-04-25 10:22 | 58.14772 | 23.99732 | 33343 ft | 469 kts | 196° |
| 2026-04-25 10:23 | 58.11552 | 23.98649 | 33559 ft | 469 kts | 196° |
| 2026-04-25 10:23 | 58.08343 | 23.97571 | 33767 ft | 469 kts | 195° |
| 2026-04-25 10:23 | 58.05134 | 23.96496 | 33916 ft | 470 kts | 195° |
| 2026-04-25 10:23 | 58.01908 | 23.95415 | 34047 ft | 471 kts | 195° |
| 2026-04-25 10:24 | 57.98683 | 23.94338 | 34230 ft | 471 kts | 195° |
| 2026-04-25 10:24 | 57.95460 | 23.93264 | 34436 ft | 470 kts | 195° |
| 2026-04-25 10:24 | 57.92238 | 23.92193 | 34589 ft | 470 kts | 195° |
| 2026-04-25 10:24 | 57.89013 | 23.91121 | 34716 ft | 472 kts | 195° |
| 2026-04-25 10:25 | 57.85777 | 23.90048 | 34876 ft | 472 kts | 195° |
| 2026-04-25 10:25 | 57.82550 | 23.88980 | 35058 ft | 471 kts | 195° |
| 2026-04-25 10:25 | 57.79314 | 23.87911 | 35201 ft | 472 kts | 195° |
| 2026-04-25 10:25 | 57.76079 | 23.86843 | 35323 ft | 473 kts | 195° |
| 2026-04-25 10:26 | 57.72841 | 23.85777 | 35471 ft | 472 kts | 195° |
| 2026-04-25 10:26 | 57.66376 | 23.83667 | 35506 ft | 477 kts | 195° |
| 2026-04-25 10:27 | 57.59813 | 23.81545 | 35520 ft | 481 kts | 195° |
| 2026-04-25 10:27 | 57.53208 | 23.79416 | 35511 ft | 483 kts | 195° |
| 2026-04-25 10:28 | 57.46573 | 23.77282 | 35520 ft | 484 kts | 195° |
| 2026-04-25 10:28 | 57.39935 | 23.75152 | 35510 ft | 484 kts | 195° |
| 2026-04-25 10:29 | 57.33295 | 23.73013 | 35520 ft | 484 kts | 195° |
| 2026-04-25 10:29 | 57.26671 | 23.70883 | 35512 ft | 483 kts | 195° |
| 2026-04-25 10:30 | 57.20052 | 23.68763 | 35517 ft | 482 kts | 195° |
| 2026-04-25 10:30 | 57.13455 | 23.66659 | 35515 ft | 481 kts | 195° |
| 2026-04-25 10:31 | 57.06865 | 23.64565 | 35527 ft | 480 kts | 195° |
| 2026-04-25 10:31 | 57.00278 | 23.62479 | 35518 ft | 480 kts | 194° |
| 2026-04-25 10:32 | 56.93697 | 23.60403 | 35528 ft | 480 kts | 194° |
| 2026-04-25 10:32 | 56.87117 | 23.58334 | 35523 ft | 480 kts | 194° |
| 2026-04-25 10:33 | 56.80537 | 23.56273 | 35534 ft | 480 kts | 194° |
| 2026-04-25 10:33 | 56.73955 | 23.54218 | 35530 ft | 480 kts | 194° |
| 2026-04-25 10:34 | 56.67372 | 23.52171 | 35543 ft | 480 kts | 194° |
| 2026-04-25 10:34 | 56.60785 | 23.50129 | 35546 ft | 480 kts | 194° |
| 2026-04-25 10:35 | 56.54193 | 23.48092 | 35551 ft | 481 kts | 194° |
| 2026-04-25 10:35 | 56.47642 | 23.46076 | 35548 ft | 481 kts | 194° |
| 2026-04-25 10:36 | 56.41007 | 23.44040 | 35561 ft | 481 kts | 194° |
| 2026-04-25 10:36 | 56.34389 | 23.42127 | 35556 ft | 483 kts | 192° |
| 2026-04-25 10:37 | 56.27737 | 23.40840 | 35565 ft | 485 kts | 190° |
| 2026-04-25 10:37 | 56.21016 | 23.39696 | 35569 ft | 485 kts | 190° |
| 2026-04-25 10:38 | 56.14296 | 23.38504 | 35584 ft | 486 kts | 190° |
| 2026-04-25 10:38 | 56.07564 | 23.37267 | 35587 ft | 486 kts | 190° |
| 2026-04-25 10:39 | 56.00836 | 23.36023 | 35605 ft | 487 kts | 190° |
| 2026-04-25 10:39 | 55.94091 | 23.34781 | 35604 ft | 488 kts | 190° |
| 2026-04-25 10:40 | 55.87336 | 23.33544 | 35604 ft | 488 kts | 190° |
| 2026-04-25 10:40 | 55.80578 | 23.32312 | 35600 ft | 488 kts | 190° |
| 2026-04-25 10:41 | 55.73811 | 23.31082 | 35598 ft | 489 kts | 190° |
| 2026-04-25 10:41 | 55.67032 | 23.29855 | 35606 ft | 490 kts | 190° |
| 2026-04-25 10:42 | 55.60238 | 23.28629 | 35607 ft | 490 kts | 190° |
| 2026-04-25 10:42 | 55.53451 | 23.27409 | 35611 ft | 490 kts | 190° |
| 2026-04-25 10:43 | 55.46666 | 23.26192 | 35630 ft | 491 kts | 190° |
| 2026-04-25 10:43 | 55.39874 | 23.24895 | 35631 ft | 490 kts | 192° |
| 2026-04-25 10:44 | 55.33155 | 23.23084 | 35637 ft | 489 kts | 194° |
| 2026-04-25 10:44 | 55.26484 | 23.21167 | 35640 ft | 489 kts | 193° |
| 2026-04-25 10:45 | 55.19747 | 23.19303 | 35646 ft | 490 kts | 193° |
| 2026-04-25 10:45 | 55.13002 | 23.17496 | 35641 ft | 490 kts | 193° |
| 2026-04-25 10:46 | 55.06255 | 23.15707 | 35657 ft | 491 kts | 193° |
| 2026-04-25 10:46 | 54.99496 | 23.13920 | 35654 ft | 492 kts | 193° |
| 2026-04-25 10:47 | 54.92727 | 23.12133 | 35662 ft | 492 kts | 193° |
| 2026-04-25 10:47 | 54.85953 | 23.10349 | 35665 ft | 493 kts | 193° |
| 2026-04-25 10:48 | 54.79167 | 23.08569 | 35674 ft | 494 kts | 193° |
| 2026-04-25 10:48 | 54.72368 | 23.06791 | 35667 ft | 494 kts | 193° |
| 2026-04-25 10:49 | 54.65556 | 23.05016 | 35673 ft | 495 kts | 193° |
| 2026-04-25 10:49 | 54.58743 | 23.03247 | 35672 ft | 496 kts | 193° |
| 2026-04-25 10:50 | 54.51915 | 23.01480 | 35682 ft | 496 kts | 193° |
| 2026-04-25 10:50 | 54.45086 | 22.99718 | 35681 ft | 497 kts | 193° |
| 2026-04-25 10:51 | 54.38240 | 22.97958 | 35689 ft | 497 kts | 193° |
| 2026-04-25 10:51 | 54.31390 | 22.96203 | 35685 ft | 498 kts | 193° |
| 2026-04-25 10:52 | 54.24528 | 22.94451 | 35696 ft | 499 kts | 193° |
| 2026-04-25 10:52 | 54.17653 | 22.92701 | 35690 ft | 500 kts | 193° |
| 2026-04-25 10:53 | 54.10764 | 22.90953 | 35702 ft | 501 kts | 193° |
| 2026-04-25 10:53 | 54.04176 | 22.87849 | 35691 ft | 490 kts | 211° |
| 2026-04-25 10:54 | 53.98116 | 22.82666 | 35703 ft | 488 kts | 213° |
| 2026-04-25 10:54 | 53.92057 | 22.77406 | 35698 ft | 489 kts | 212° |
| 2026-04-25 10:55 | 53.85970 | 22.72218 | 35707 ft | 490 kts | 212° |
| 2026-04-25 10:55 | 53.79852 | 22.67074 | 35705 ft | 491 kts | 212° |
| 2026-04-25 10:56 | 53.73721 | 22.61949 | 35714 ft | 492 kts | 212° |
| 2026-04-25 10:56 | 53.67579 | 22.56830 | 35711 ft | 493 kts | 212° |
| 2026-04-25 10:57 | 53.61436 | 22.51724 | 35720 ft | 493 kts | 212° |
| 2026-04-25 10:57 | 53.55278 | 22.46619 | 35716 ft | 493 kts | 212° |
| 2026-04-25 10:58 | 53.49120 | 22.41532 | 35728 ft | 493 kts | 212° |
| 2026-04-25 10:58 | 53.42959 | 22.36460 | 35721 ft | 493 kts | 212° |
| 2026-04-25 10:59 | 53.36785 | 22.31392 | 35732 ft | 494 kts | 212° |
| 2026-04-25 10:59 | 53.30616 | 22.26345 | 35729 ft | 494 kts | 212° |
| 2026-04-25 11:00 | 53.24433 | 22.21303 | 35737 ft | 494 kts | 211° |
| 2026-04-25 11:00 | 53.18249 | 22.16276 | 35735 ft | 495 kts | 211° |
| 2026-04-25 11:01 | 53.12047 | 22.11251 | 35754 ft | 495 kts | 211° |
| 2026-04-25 11:01 | 53.05843 | 22.06241 | 35751 ft | 496 kts | 211° |
| 2026-04-25 11:02 | 52.99627 | 22.01237 | 35757 ft | 497 kts | 211° |
| 2026-04-25 11:02 | 52.93400 | 21.96241 | 35751 ft | 497 kts | 211° |
| 2026-04-25 11:03 | 52.87207 | 21.91288 | 35769 ft | 498 kts | 211° |
| 2026-04-25 11:03 | 52.80969 | 21.86314 | 35763 ft | 498 kts | 211° |
| 2026-04-25 11:04 | 52.74731 | 21.81357 | 35772 ft | 498 kts | 211° |
| 2026-04-25 11:04 | 52.68489 | 21.76412 | 35786 ft | 497 kts | 211° |
| 2026-04-25 11:05 | 52.62251 | 21.71487 | 35781 ft | 497 kts | 211° |
| 2026-04-25 11:05 | 52.56077 | 21.66627 | 35797 ft | 497 kts | 211° |
| 2026-04-25 11:06 | 52.50894 | 21.62559 | 35793 ft | 496 kts | 211° |
| 2026-04-25 11:06 | 52.44667 | 21.57685 | 35802 ft | 496 kts | 211° |
| 2026-04-25 11:07 | 52.38434 | 21.52821 | 35799 ft | 496 kts | 211° |
| 2026-04-25 11:07 | 52.32655 | 21.48327 | 35811 ft | 495 kts | 211° |
| 2026-04-25 11:08 | 52.26430 | 21.43500 | 35811 ft | 495 kts | 211° |
| 2026-04-25 11:08 | 52.20208 | 21.38689 | 35825 ft | 495 kts | 211° |
| 2026-04-25 11:09 | 52.13992 | 21.33898 | 35821 ft | 494 kts | 211° |
| 2026-04-25 11:09 | 52.07777 | 21.29124 | 35829 ft | 494 kts | 211° |
| 2026-04-25 11:10 | 52.01554 | 21.24357 | 35829 ft | 494 kts | 210° |
| 2026-04-25 11:10 | 51.95342 | 21.19614 | 35838 ft | 493 kts | 210° |
| 2026-04-25 11:11 | 51.89134 | 21.14888 | 35836 ft | 493 kts | 210° |
| 2026-04-25 11:11 | 51.82919 | 21.10172 | 35850 ft | 493 kts | 210° |
| 2026-04-25 11:12 | 51.76704 | 21.05470 | 35847 ft | 493 kts | 210° |
| 2026-04-25 11:12 | 51.70491 | 21.00783 | 35867 ft | 493 kts | 210° |
| 2026-04-25 11:13 | 51.64280 | 20.96113 | 35865 ft | 493 kts | 210° |
| 2026-04-25 11:13 | 51.58065 | 20.91453 | 35878 ft | 492 kts | 210° |
| 2026-04-25 11:14 | 51.51854 | 20.86810 | 35879 ft | 492 kts | 210° |
| 2026-04-25 11:14 | 51.45643 | 20.82182 | 35887 ft | 492 kts | 210° |
| 2026-04-25 11:15 | 51.39431 | 20.77566 | 35883 ft | 492 kts | 210° |
| 2026-04-25 11:15 | 51.33218 | 20.72961 | 35894 ft | 492 kts | 210° |
| 2026-04-25 11:16 | 51.23906 | 20.66034 | 35898 ft | 492 kts | 210° |
| 2026-04-25 11:16 | 51.17781 | 20.61370 | 35904 ft | 491 kts | 210° |
| 2026-04-25 11:17 | 51.11619 | 20.56682 | 35908 ft | 491 kts | 210° |
| 2026-04-25 11:17 | 51.05447 | 20.52013 | 35911 ft | 491 kts | 210° |
| 2026-04-25 11:18 | 50.99281 | 20.47373 | 35915 ft | 491 kts | 210° |
| 2026-04-25 11:18 | 50.93107 | 20.42741 | 35914 ft | 490 kts | 210° |
| 2026-04-25 11:19 | 50.86942 | 20.38129 | 35919 ft | 490 kts | 210° |
| 2026-04-25 11:19 | 50.80781 | 20.33534 | 35923 ft | 489 kts | 210° |
| 2026-04-25 11:20 | 50.74614 | 20.28946 | 36001 ft | 491 kts | 210° |
| 2026-04-25 11:20 | 50.71530 | 20.26658 | 36209 ft | 489 kts | 210° |
| 2026-04-25 11:20 | 50.68457 | 20.24382 | 36413 ft | 487 kts | 210° |
| 2026-04-25 11:21 | 50.65387 | 20.22111 | 36556 ft | 487 kts | 210° |
| 2026-04-25 11:21 | 50.62323 | 20.19847 | 36772 ft | 485 kts | 210° |
| 2026-04-25 11:21 | 50.59289 | 20.17610 | 37120 ft | 480 kts | 210° |
| 2026-04-25 11:21 | 50.56272 | 20.15390 | 37444 ft | 477 kts | 210° |
| 2026-04-25 11:22 | 50.53278 | 20.13188 | 37721 ft | 474 kts | 210° |
| 2026-04-25 11:22 | 50.51295 | 20.11730 | 37834 ft | 474 kts | 210° |
| 2026-04-25 11:22 | 50.47298 | 20.08794 | 37941 ft | 475 kts | 210° |
| 2026-04-25 11:22 | 50.44295 | 20.06590 | 37935 ft | 477 kts | 210° |
| 2026-04-25 11:23 | 50.38268 | 20.02180 | 37952 ft | 478 kts | 210° |
| 2026-04-25 11:23 | 50.32245 | 19.97772 | 37953 ft | 478 kts | 210° |
| 2026-04-25 11:24 | 50.26206 | 19.93381 | 37964 ft | 478 kts | 210° |
| 2026-04-25 11:24 | 50.20177 | 19.89015 | 37970 ft | 477 kts | 210° |
| 2026-04-25 11:25 | 50.14157 | 19.84664 | 37960 ft | 476 kts | 210° |
| 2026-04-25 11:25 | 50.08148 | 19.80333 | 37967 ft | 475 kts | 210° |
| 2026-04-25 11:26 | 50.02150 | 19.76024 | 37971 ft | 474 kts | 209° |
| 2026-04-25 11:26 | 49.95843 | 19.72795 | 37970 ft | 479 kts | 199° |
| 2026-04-25 11:27 | 49.89380 | 19.70209 | 37962 ft | 479 kts | 199° |
| 2026-04-25 11:27 | 49.84016 | 19.68063 | 37952 ft | 479 kts | 199° |
| 2026-04-25 11:28 | 49.76498 | 19.64965 | 37952 ft | 478 kts | 200° |
| 2026-04-25 11:28 | 49.70128 | 19.62305 | 37955 ft | 478 kts | 200° |
| 2026-04-25 11:29 | 49.63730 | 19.59642 | 38093 ft | 470 kts | 202° |
| 2026-04-25 11:29 | 49.60624 | 19.58361 | 37954 ft | 455 kts | 202° |
| 2026-04-25 11:29 | 49.57613 | 19.57123 | 37948 ft | 441 kts | 202° |
| 2026-04-25 11:30 | 49.51746 | 19.54690 | 37964 ft | 437 kts | 203° |
| 2026-04-25 11:30 | 49.45827 | 19.52225 | 37963 ft | 443 kts | 202° |
| 2026-04-25 11:31 | 49.39840 | 19.49753 | 37964 ft | 448 kts | 202° |
| 2026-04-25 11:31 | 49.33784 | 19.47259 | 37947 ft | 452 kts | 202° |
| 2026-04-25 11:32 | 49.27690 | 19.44759 | 37961 ft | 455 kts | 202° |
| 2026-04-25 11:32 | 49.21563 | 19.42256 | 37958 ft | 456 kts | 202° |
| 2026-04-25 11:33 | 49.15424 | 19.39759 | 37948 ft | 456 kts | 202° |
| 2026-04-25 11:33 | 49.09301 | 19.37272 | 37945 ft | 455 kts | 202° |
| 2026-04-25 11:34 | 49.03193 | 19.34793 | 37958 ft | 453 kts | 202° |
| 2026-04-25 11:34 | 48.97096 | 19.32317 | 37955 ft | 453 kts | 202° |
| 2026-04-25 11:35 | 48.91009 | 19.29864 | 37962 ft | 452 kts | 201° |
| 2026-04-25 11:35 | 48.84984 | 19.27442 | 37952 ft | 450 kts | 201° |
| 2026-04-25 11:36 | 48.78942 | 19.25013 | 37961 ft | 448 kts | 201° |
| 2026-04-25 11:36 | 48.72918 | 19.22598 | 37971 ft | 447 kts | 201° |
| 2026-04-25 11:37 | 48.66903 | 19.20193 | 37957 ft | 447 kts | 201° |
| 2026-04-25 11:37 | 48.60887 | 19.17793 | 37959 ft | 447 kts | 201° |
| 2026-04-25 11:38 | 48.54865 | 19.15395 | 37973 ft | 447 kts | 201° |
| 2026-04-25 11:38 | 48.48836 | 19.13001 | 37964 ft | 449 kts | 201° |
| 2026-04-25 11:39 | 48.42751 | 19.10765 | 37970 ft | 453 kts | 198° |
| 2026-04-25 11:39 | 48.36531 | 19.09061 | 37978 ft | 455 kts | 196° |
| 2026-04-25 11:40 | 48.30285 | 19.07452 | 37976 ft | 456 kts | 196° |
| 2026-04-25 11:40 | 48.24033 | 19.05804 | 37976 ft | 456 kts | 196° |
| 2026-04-25 11:41 | 48.17781 | 19.04122 | 37985 ft | 456 kts | 196° |
| 2026-04-25 11:41 | 48.11529 | 19.02431 | 37984 ft | 456 kts | 196° |
| 2026-04-25 11:42 | 48.05280 | 19.00744 | 37987 ft | 456 kts | 196° |
| 2026-04-25 11:42 | 47.99031 | 18.99063 | 37987 ft | 456 kts | 196° |
| 2026-04-25 11:43 | 47.92781 | 18.97386 | 37990 ft | 456 kts | 196° |
| 2026-04-25 11:43 | 47.86530 | 18.95713 | 37991 ft | 456 kts | 196° |
| 2026-04-25 11:44 | 47.80275 | 18.94043 | 37998 ft | 457 kts | 196° |
| 2026-04-25 11:44 | 47.74012 | 18.92375 | 37991 ft | 457 kts | 196° |
| 2026-04-25 11:45 | 47.67753 | 18.90712 | 38007 ft | 457 kts | 196° |
| 2026-04-25 11:45 | 47.61486 | 18.89051 | 37998 ft | 458 kts | 196° |
| 2026-04-25 11:46 | 47.55208 | 18.87392 | 38006 ft | 458 kts | 196° |
| 2026-04-25 11:46 | 47.48926 | 18.85735 | 38010 ft | 459 kts | 196° |
| 2026-04-25 11:47 | 47.42642 | 18.84082 | 38007 ft | 459 kts | 196° |
| 2026-04-25 11:47 | 47.36350 | 18.82431 | 38001 ft | 459 kts | 195° |
| 2026-04-25 11:48 | 47.30060 | 18.80784 | 38014 ft | 459 kts | 195° |
| 2026-04-25 11:48 | 47.23816 | 18.79154 | 38015 ft | 458 kts | 195° |
| 2026-04-25 11:49 | 47.17502 | 18.77509 | 38010 ft | 458 kts | 195° |
| 2026-04-25 11:49 | 47.11226 | 18.75878 | 38012 ft | 458 kts | 196° |
| 2026-04-25 11:50 | 47.06012 | 18.74526 | 38022 ft | 457 kts | 195° |
| 2026-04-25 11:50 | 46.98727 | 18.72640 | 38024 ft | 458 kts | 195° |
| 2026-04-25 11:51 | 46.92455 | 18.71021 | 38021 ft | 458 kts | 195° |
| 2026-04-25 11:51 | 46.86181 | 18.69406 | 38021 ft | 458 kts | 195° |
| 2026-04-25 11:52 | 46.80953 | 18.68063 | 38027 ft | 459 kts | 195° |
| 2026-04-25 11:52 | 46.74666 | 18.66451 | 38023 ft | 459 kts | 195° |
| 2026-04-25 11:53 | 46.68373 | 18.64842 | 38024 ft | 460 kts | 195° |
| 2026-04-25 11:53 | 46.62073 | 18.63234 | 38018 ft | 460 kts | 195° |
| 2026-04-25 11:54 | 46.55766 | 18.61630 | 38041 ft | 460 kts | 195° |
| 2026-04-25 11:55 | 46.46304 | 18.59228 | 38035 ft | 460 kts | 195° |
| 2026-04-25 11:55 | 46.40003 | 18.57634 | 38033 ft | 460 kts | 195° |
| 2026-04-25 11:56 | 46.33692 | 18.56041 | 38035 ft | 460 kts | 195° |
| 2026-04-25 11:56 | 46.27386 | 18.54453 | 38041 ft | 460 kts | 195° |
| 2026-04-25 11:57 | 46.21080 | 18.52868 | 38035 ft | 460 kts | 195° |
| 2026-04-25 11:57 | 46.14779 | 18.51289 | 38043 ft | 460 kts | 194° |
| 2026-04-25 11:58 | 46.08474 | 18.49712 | 38042 ft | 460 kts | 194° |
| 2026-04-25 11:58 | 46.02167 | 18.48138 | 38048 ft | 460 kts | 194° |
| 2026-04-25 11:59 | 45.95914 | 18.46581 | 38044 ft | 460 kts | 194° |
| 2026-04-25 11:59 | 45.89607 | 18.45015 | 38046 ft | 460 kts | 194° |
| 2026-04-25 12:00 | 45.80141 | 18.42669 | 38044 ft | 460 kts | 194° |
| 2026-04-25 12:01 | 45.70598 | 18.40901 | 38059 ft | 464 kts | 186° |
| 2026-04-25 12:01 | 45.64176 | 18.40672 | 38041 ft | 465 kts | 185° |
| 2026-04-25 12:02 | 45.54477 | 18.40324 | 38053 ft | 465 kts | 185° |
| 2026-04-25 12:02 | 45.48007 | 18.40020 | 38050 ft | 465 kts | 185° |
| 2026-04-25 12:03 | 45.41537 | 18.39703 | 38050 ft | 465 kts | 185° |
| 2026-04-25 12:03 | 45.35067 | 18.39389 | 38054 ft | 465 kts | 185° |
| 2026-04-25 12:04 | 45.28591 | 18.39079 | 38060 ft | 466 kts | 185° |
| 2026-04-25 12:04 | 45.22114 | 18.38769 | 38056 ft | 466 kts | 185° |
| 2026-04-25 12:05 | 45.15630 | 18.38459 | 38061 ft | 466 kts | 185° |
| 2026-04-25 12:05 | 45.09161 | 18.37986 | 38053 ft | 463 kts | 192° |
| 2026-04-25 12:06 | 45.02861 | 18.36210 | 38057 ft | 462 kts | 195° |
| 2026-04-25 12:06 | 44.96633 | 18.34279 | 38060 ft | 462 kts | 195° |
| 2026-04-25 12:07 | 44.90346 | 18.32376 | 38066 ft | 462 kts | 195° |
| 2026-04-25 12:07 | 44.84052 | 18.30519 | 38070 ft | 462 kts | 194° |
| 2026-04-25 12:08 | 44.77751 | 18.28682 | 38058 ft | 463 kts | 194° |
| 2026-04-25 12:08 | 44.71447 | 18.26849 | 38068 ft | 463 kts | 194° |
| 2026-04-25 12:09 | 44.65146 | 18.25018 | 38067 ft | 463 kts | 194° |
| 2026-04-25 12:09 | 44.58835 | 18.23187 | 38068 ft | 463 kts | 194° |
| 2026-04-25 12:10 | 44.52498 | 18.21353 | 38070 ft | 463 kts | 194° |
| 2026-04-25 12:10 | 44.46174 | 18.19528 | 38078 ft | 464 kts | 194° |
| 2026-04-25 12:11 | 44.39853 | 18.17707 | 38060 ft | 464 kts | 194° |
| 2026-04-25 12:11 | 44.33534 | 18.15890 | 38071 ft | 464 kts | 193° |
| 2026-04-25 12:12 | 44.28273 | 18.14381 | 38009 ft | 465 kts | 193° |
| 2026-04-25 12:12 | 44.24002 | 18.13156 | 37305 ft | 467 kts | 193° |
| 2026-04-25 12:12 | 44.20819 | 18.12247 | 36673 ft | 466 kts | 193° |
| 2026-04-25 12:13 | 44.17695 | 18.11355 | 36125 ft | 464 kts | 193° |
| 2026-04-25 12:13 | 44.14491 | 18.10441 | 35452 ft | 465 kts | 193° |
| 2026-04-25 12:13 | 44.11335 | 18.09541 | 34797 ft | 466 kts | 193° |
| 2026-04-25 12:13 | 44.08151 | 18.08633 | 34132 ft | 468 kts | 193° |
| 2026-04-25 12:14 | 44.04953 | 18.07723 | 33335 ft | 470 kts | 193° |
| 2026-04-25 12:14 | 44.01744 | 18.06811 | 32587 ft | 471 kts | 193° |
| 2026-04-25 12:14 | 43.98528 | 18.05898 | 31842 ft | 472 kts | 193° |
| 2026-04-25 12:14 | 43.95306 | 18.04984 | 31092 ft | 473 kts | 192° |
| 2026-04-25 12:15 | 43.92073 | 18.04069 | 30315 ft | 475 kts | 192° |
| 2026-04-25 12:15 | 43.88831 | 18.03152 | 29416 ft | 476 kts | 192° |
| 2026-04-25 12:15 | 43.85578 | 18.02233 | 28502 ft | 477 kts | 192° |
| 2026-04-25 12:15 | 43.82325 | 18.01315 | 27596 ft | 477 kts | 192° |
| 2026-04-25 12:16 | 43.79067 | 18.00397 | 26668 ft | 479 kts | 192° |
| 2026-04-25 12:16 | 43.75799 | 17.99476 | 25748 ft | 480 kts | 193° |
| 2026-04-25 12:16 | 43.72547 | 17.98562 | 25102 ft | 474 kts | 192° |
| 2026-04-25 12:16 | 43.69322 | 17.97655 | 24434 ft | 470 kts | 193° |
| 2026-04-25 12:17 | 43.66175 | 17.96773 | 23756 ft | 467 kts | 193° |
| 2026-04-25 12:17 | 43.63001 | 17.95883 | 22976 ft | 464 kts | 193° |
| 2026-04-25 12:17 | 43.59852 | 17.95000 | 22261 ft | 459 kts | 193° |
| 2026-04-25 12:17 | 43.56735 | 17.94127 | 21560 ft | 455 kts | 193° |
| 2026-04-25 12:18 | 43.53647 | 17.93265 | 20889 ft | 451 kts | 192° |
| 2026-04-25 12:18 | 43.50589 | 17.92411 | 20228 ft | 447 kts | 192° |
| 2026-04-25 12:18 | 43.47553 | 17.91564 | 19562 ft | 443 kts | 192° |
| 2026-04-25 12:18 | 43.44545 | 17.90725 | 18907 ft | 440 kts | 192° |
| 2026-04-25 12:19 | 43.39578 | 17.89342 | 17727 ft | 436 kts | 192° |
| 2026-04-25 12:19 | 43.35622 | 17.88241 | 16803 ft | 431 kts | 192° |
| 2026-04-25 12:19 | 43.32697 | 17.87428 | 16140 ft | 427 kts | 192° |
| 2026-04-25 12:20 | 43.29796 | 17.86625 | 15505 ft | 423 kts | 192° |
| 2026-04-25 12:20 | 43.26956 | 17.85643 | 14862 ft | 419 kts | 200° |
| 2026-04-25 12:20 | 43.24307 | 17.84075 | 14494 ft | 409 kts | 210° |
| 2026-04-25 12:20 | 43.21918 | 17.82043 | 14027 ft | 402 kts | 214° |
| 2026-04-25 12:21 | 43.19591 | 17.79932 | 13434 ft | 400 kts | 214° |
| 2026-04-25 12:21 | 43.17277 | 17.77827 | 12788 ft | 398 kts | 214° |
| 2026-04-25 12:21 | 43.14970 | 17.75747 | 12177 ft | 396 kts | 214° |
| 2026-04-25 12:21 | 43.12667 | 17.73689 | 11637 ft | 393 kts | 214° |
| 2026-04-25 12:22 | 43.10413 | 17.71690 | 11473 ft | 381 kts | 214° |
| 2026-04-25 12:22 | 43.08180 | 17.69806 | 11190 ft | 373 kts | 206° |
| 2026-04-25 12:22 | 43.05691 | 17.68992 | 10862 ft | 369 kts | 181° |
| 2026-04-25 12:22 | 43.03170 | 17.69451 | 10518 ft | 364 kts | 162° |
| 2026-04-25 12:23 | 43.00820 | 17.70661 | 10188 ft | 360 kts | 157° |
| 2026-04-25 12:23 | 42.98509 | 17.71954 | 9825 ft | 357 kts | 156° |
| 2026-04-25 12:23 | 42.96224 | 17.73240 | 9449 ft | 351 kts | 156° |
| 2026-04-25 12:23 | 42.93989 | 17.74490 | 9013 ft | 344 kts | 156° |
| 2026-04-25 12:24 | 42.91798 | 17.75702 | 8599 ft | 336 kts | 157° |
| 2026-04-25 12:24 | 42.89652 | 17.76883 | 8186 ft | 329 kts | 157° |
| 2026-04-25 12:24 | 42.87552 | 17.78030 | 7769 ft | 323 kts | 157° |
| 2026-04-25 12:24 | 42.85508 | 17.79144 | 7394 ft | 317 kts | 157° |
| 2026-04-25 12:25 | 42.83474 | 17.80247 | 6985 ft | 312 kts | 157° |
| 2026-04-25 12:25 | 42.81475 | 17.81332 | 6613 ft | 307 kts | 157° |
| 2026-04-25 12:25 | 42.79496 | 17.82396 | 6217 ft | 303 kts | 157° |
| 2026-04-25 12:25 | 42.77554 | 17.83442 | 5815 ft | 298 kts | 157° |
| 2026-04-25 12:26 | 42.75646 | 17.84478 | 5487 ft | 293 kts | 157° |
| 2026-04-25 12:26 | 42.73768 | 17.85504 | 5351 ft | 288 kts | 156° |
| 2026-04-25 12:26 | 42.72092 | 17.86943 | 5154 ft | 286 kts | 131° |
| 2026-04-25 12:26 | 42.71021 | 17.89148 | 5087 ft | 274 kts | 116° |
| 2026-04-25 12:27 | 42.70157 | 17.91411 | 5026 ft | 264 kts | 115° |
| 2026-04-25 12:27 | 42.69329 | 17.93568 | 5019 ft | 249 kts | 116° |
| 2026-04-25 12:27 | 42.68533 | 17.95601 | 5013 ft | 244 kts | 116° |
| 2026-04-25 12:27 | 42.67707 | 17.97645 | 4883 ft | 248 kts | 116° |
| 2026-04-25 12:28 | 42.66909 | 17.99662 | 4591 ft | 242 kts | 116° |
| 2026-04-25 12:28 | 42.66134 | 18.01617 | 4285 ft | 235 kts | 116° |
| 2026-04-25 12:28 | 42.65372 | 18.03534 | 3989 ft | 227 kts | 117° |
| 2026-04-25 12:28 | 42.64631 | 18.05396 | 3707 ft | 220 kts | 117° |
| 2026-04-25 12:29 | 42.63917 | 18.07195 | 3407 ft | 213 kts | 118° |
| 2026-04-25 12:29 | 42.63226 | 18.08933 | 3127 ft | 206 kts | 118° |
| 2026-04-25 12:29 | 42.62554 | 18.10626 | 2857 ft | 201 kts | 118° |
| 2026-04-25 12:29 | 42.61899 | 18.12277 | 2584 ft | 195 kts | 119° |
| 2026-04-25 12:30 | 42.61278 | 18.13843 | 2336 ft | 183 kts | 119° |
| 2026-04-25 12:30 | 42.60700 | 18.15301 | 2121 ft | 168 kts | 120° |
| 2026-04-25 12:30 | 42.60166 | 18.16648 | 1895 ft | 159 kts | 120° |
| 2026-04-25 12:30 | 42.59649 | 18.17950 | 1688 ft | 155 kts | 120° |
| 2026-04-25 12:31 | 42.59133 | 18.19254 | 1511 ft | 157 kts | 120° |
| 2026-04-25 12:31 | 42.58611 | 18.20574 | 1255 ft | 160 kts | 119° |
| 2026-04-25 12:31 | 42.58088 | 18.21894 | 1055 ft | 159 kts | 119° |
| 2026-04-25 12:31 | 42.57564 | 18.23228 | 867 ft | 158 kts | 118° |
| 2026-04-25 12:32 | 42.57037 | 18.24548 | 656 ft | 157 kts | 120° |
| 2026-04-25 12:32 | 42.56545 | 18.25790 | 534 ft | 139 kts | 118° |
| 2026-04-25 12:32 | 42.56190 | 18.26684 | 533 ft | 75 kts | 118° |
| 2026-04-25 12:32 | 42.56020 | 18.27119 | 532 ft | 28 kts | 118° |
| 2026-04-25 12:33 | 42.55935 | 18.27304 | 531 ft | 22 kts | 144° |
| 2026-04-25 12:33 | 42.55821 | 18.27338 | 532 ft | 9 kts | 174° |
| 2026-04-25 12:33 | 42.55774 | 18.27305 | 533 ft | 8 kts | 254° |
| 2026-04-25 12:33 | 42.55792 | 18.27224 | 533 ft | 10 kts | 297° |
| 2026-04-25 12:34 | 42.55831 | 18.27123 | 533 ft | 14 kts | 297° |
| 2026-04-25 12:34 | 42.55881 | 18.26997 | 533 ft | 17 kts | 298° |
| 2026-04-25 12:34 | 42.55941 | 18.26846 | 533 ft | 20 kts | 297° |
| 2026-04-25 12:34 | 42.55962 | 18.26791 | 533 ft | 20 kts | 298° |
| 2026-04-25 12:35 | 42.56083 | 18.26488 | 533 ft | 22 kts | 298° |
| 2026-04-25 12:35 | 42.56141 | 18.26340 | 533 ft | 17 kts | 298° |
| 2026-04-25 12:35 | 42.56189 | 18.26219 | 533 ft | 6 kts | 298° |
| 2026-04-25 12:35 | 42.56171 | 18.26171 | 533 ft | 7 kts | 209° |
| 2026-04-25 12:36 | 42.56150 | 18.26156 | 533 ft | 2 kts | 208° |
| 2026-04-25 12:36 | 42.56147 | 18.26154 | 533 ft | 0 kts | 208° |